sensor_id;sensor_type;location;lat;lon;timestamp;pressure;altitude;pressure_sealevel;temperature;humidity
59337;BME280;45115;52.002;4.686;2023-01-31T00:01:05;102549.53;;;1.25;100.00
59337;BME280;45115;52.002;4.686;2023-01-31T00:03:33;102539.72;;;1.27;100.00
59337;BME280;45115;52.002;4.686;2023-01-31T00:06:09;102551.19;;;1.35;100.00
59337;BME280;45115;52.002;4.686;2023-01-31T00:08:37;102550.03;;;1.54;100.00
59337;BME280;45115;52.002;4.686;2023-01-31T00:11:07;102547.56;;;1.61;100.00
59337;BME280;45115;52.002;4.686;2023-01-31T00:13:34;102552.47;;;1.80;100.00
59337;BME280;45115;52.002;4.686;2023-01-31T00:16:01;102538.91;;;1.85;100.00
59337;BME280;45115;52.002;4.686;2023-01-31T00:18:29;102543.59;;;2.06;100.00
59337;BME280;45115;52.002;4.686;2023-01-31T00:20:55;102542.72;;;2.22;100.00
59337;BME280;45115;52.002;4.686;2023-01-31T00:23:22;102541.59;;;2.25;100.00
59337;BME280;45115;52.002;4.686;2023-01-31T00:25:50;102535.34;;;2.26;100.00
59337;BME280;45115;52.002;4.686;2023-01-31T00:28:17;102522.47;;;2.16;100.00
59337;BME280;45115;52.002;4.686;2023-01-31T00:30:44;102512.47;;;2.20;100.00
59337;BME280;45115;52.002;4.686;2023-01-31T00:33:10;102508.84;;;2.21;100.00
59337;BME280;45115;52.002;4.686;2023-01-31T00:35:38;102500.22;;;2.12;100.00
59337;BME280;45115;52.002;4.686;2023-01-31T00:38:06;102488.97;;;2.03;100.00
59337;BME280;45115;52.002;4.686;2023-01-31T00:40:32;102490.44;;;1.89;100.00
59337;BME280;45115;52.002;4.686;2023-01-31T00:43:00;102481.13;;;1.95;100.00
59337;BME280;45115;52.002;4.686;2023-01-31T00:45:27;102478.19;;;1.90;100.00
59337;BME280;45115;52.002;4.686;2023-01-31T00:47:54;102469.06;;;1.69;100.00
59337;BME280;45115;52.002;4.686;2023-01-31T00:50:21;102457.50;;;1.55;100.00
59337;BME280;45115;52.002;4.686;2023-01-31T00:52:47;102456.50;;;1.56;100.00
59337;BME280;45115;52.002;4.686;2023-01-31T00:55:14;102463.88;;;1.52;100.00
59337;BME280;45115;52.002;4.686;2023-01-31T00:57:41;102454.41;;;1.51;100.00
59337;BME280;45115;52.002;4.686;2023-01-31T01:00:10;102453.75;;;1.57;100.00
59337;BME280;45115;52.002;4.686;2023-01-31T01:02:37;102452.25;;;1.63;100.00
59337;BME280;45115;52.002;4.686;2023-01-31T01:05:06;102451.59;;;1.69;100.00
59337;BME280;45115;52.002;4.686;2023-01-31T01:07:33;102457.16;;;1.75;100.00
59337;BME280;45115;52.002;4.686;2023-01-31T01:10:00;102450.75;;;1.69;100.00
59337;BME280;45115;52.002;4.686;2023-01-31T01:12:27;102452.41;;;1.70;100.00
59337;BME280;45115;52.002;4.686;2023-01-31T01:14:54;102453.06;;;1.72;100.00
59337;BME280;45115;52.002;4.686;2023-01-31T01:17:22;102448.31;;;1.67;100.00
59337;BME280;45115;52.002;4.686;2023-01-31T01:19:49;102445.69;;;1.67;100.00
59337;BME280;45115;52.002;4.686;2023-01-31T01:22:17;102438.69;;;1.68;100.00
59337;BME280;45115;52.002;4.686;2023-01-31T01:24:44;102425.38;;;1.78;100.00
59337;BME280;45115;52.002;4.686;2023-01-31T01:27:12;102432.44;;;1.69;100.00
59337;BME280;45115;52.002;4.686;2023-01-31T01:29:39;102429.63;;;1.87;100.00
59337;BME280;45115;52.002;4.686;2023-01-31T01:32:06;102431.84;;;1.98;100.00
59337;BME280;45115;52.002;4.686;2023-01-31T01:34:34;102434.53;;;2.22;100.00
59337;BME280;45115;52.002;4.686;2023-01-31T01:37:01;102435.53;;;2.21;100.00
59337;BME280;45115;52.002;4.686;2023-01-31T01:39:36;102445.28;;;2.35;100.00
59337;BME280;45115;52.002;4.686;2023-01-31T01:42:03;102453.50;;;2.56;100.00
59337;BME280;45115;52.002;4.686;2023-01-31T01:44:45;102461.84;;;2.59;100.00
59337;BME280;45115;52.002;4.686;2023-01-31T01:47:17;102467.75;;;2.85;100.00
59337;BME280;45115;52.002;4.686;2023-01-31T01:49:49;102469.25;;;3.02;100.00
59337;BME280;45115;52.002;4.686;2023-01-31T01:52:17;102469.72;;;3.06;100.00
59337;BME280;45115;52.002;4.686;2023-01-31T01:54:47;102470.22;;;3.25;100.00
59337;BME280;45115;52.002;4.686;2023-01-31T01:57:19;102472.13;;;3.31;100.00
59337;BME280;45115;52.002;4.686;2023-01-31T01:59:54;102464.72;;;3.35;100.00
59337;BME280;45115;52.002;4.686;2023-01-31T02:02:24;102469.81;;;3.36;100.00
59337;BME280;45115;52.002;4.686;2023-01-31T02:04:52;102474.25;;;3.51;100.00
59337;BME280;45115;52.002;4.686;2023-01-31T02:07:19;102468.28;;;3.57;100.00
59337;BME280;45115;52.002;4.686;2023-01-31T02:09:49;102470.19;;;3.63;100.00
59337;BME280;45115;52.002;4.686;2023-01-31T02:12:18;102466.84;;;3.69;100.00
59337;BME280;45115;52.002;4.686;2023-01-31T02:14:46;102459.25;;;3.75;100.00
59337;BME280;45115;52.002;4.686;2023-01-31T02:17:15;102458.34;;;3.82;100.00
59337;BME280;45115;52.002;4.686;2023-01-31T02:19:54;102459.78;;;3.85;100.00
59337;BME280;45115;52.002;4.686;2023-01-31T02:22:28;102455.63;;;3.91;100.00
59337;BME280;45115;52.002;4.686;2023-01-31T02:25:26;102459.97;;;3.98;100.00
59337;BME280;45115;52.002;4.686;2023-01-31T02:28:35;102468.03;;;3.97;100.00
59337;BME280;45115;52.002;4.686;2023-01-31T02:31:29;102453.00;;;3.76;100.00
59337;BME280;45115;52.002;4.686;2023-01-31T02:34:07;102452.81;;;3.62;100.00
59337;BME280;45115;52.002;4.686;2023-01-31T02:36:46;102444.75;;;3.49;100.00
59337;BME280;45115;52.002;4.686;2023-01-31T02:39:22;102447.81;;;3.37;100.00
59337;BME280;45115;52.002;4.686;2023-01-31T02:41:56;102448.41;;;3.24;100.00
59337;BME280;45115;52.002;4.686;2023-01-31T02:44:30;102445.16;;;3.22;100.00
59337;BME280;45115;52.002;4.686;2023-01-31T02:47:25;102440.56;;;3.24;100.00
59337;BME280;45115;52.002;4.686;2023-01-31T02:49:57;102434.53;;;3.39;100.00
59337;BME280;45115;52.002;4.686;2023-01-31T02:52:31;102441.78;;;3.52;100.00
59337;BME280;45115;52.002;4.686;2023-01-31T02:55:09;102432.56;;;3.56;100.00
59337;BME280;45115;52.002;4.686;2023-01-31T02:57:56;102437.78;;;3.71;100.00
59337;BME280;45115;52.002;4.686;2023-01-31T03:00:25;102420.31;;;3.78;100.00
59337;BME280;45115;52.002;4.686;2023-01-31T03:02:52;102427.09;;;3.88;100.00
59337;BME280;45115;52.002;4.686;2023-01-31T03:05:20;102424.28;;;3.89;100.00
59337;BME280;45115;52.002;4.686;2023-01-31T03:07:51;102423.66;;;4.02;100.00
59337;BME280;45115;52.002;4.686;2023-01-31T03:10:26;102430.88;;;4.15;100.00
59337;BME280;45115;52.002;4.686;2023-01-31T03:13:04;102432.13;;;4.19;100.00
59337;BME280;45115;52.002;4.686;2023-01-31T03:15:40;102420.25;;;4.23;100.00
59337;BME280;45115;52.002;4.686;2023-01-31T03:18:28;102423.13;;;4.29;100.00
59337;BME280;45115;52.002;4.686;2023-01-31T03:21:05;102418.88;;;4.28;100.00
59337;BME280;45115;52.002;4.686;2023-01-31T03:23:34;102422.84;;;4.38;100.00
59337;BME280;45115;52.002;4.686;2023-01-31T03:26:05;102423.09;;;4.44;100.00
59337;BME280;45115;52.002;4.686;2023-01-31T03:28:34;102420.09;;;4.47;100.00
59337;BME280;45115;52.002;4.686;2023-01-31T03:31:07;102419.03;;;4.41;100.00
59337;BME280;45115;52.002;4.686;2023-01-31T03:33:38;102418.22;;;4.41;100.00
59337;BME280;45115;52.002;4.686;2023-01-31T03:36:16;102411.25;;;4.33;100.00
59337;BME280;45115;52.002;4.686;2023-01-31T03:38:56;102412.81;;;4.27;100.00
59337;BME280;45115;52.002;4.686;2023-01-31T03:41:28;102406.06;;;4.18;100.00
59337;BME280;45115;52.002;4.686;2023-01-31T03:44:00;102409.28;;;4.20;100.00
59337;BME280;45115;52.002;4.686;2023-01-31T03:46:33;102405.97;;;4.11;100.00
59337;BME280;45115;52.002;4.686;2023-01-31T03:49:06;102406.31;;;4.08;100.00
59337;BME280;45115;52.002;4.686;2023-01-31T03:51:40;102389.59;;;3.94;100.00
59337;BME280;45115;52.002;4.686;2023-01-31T03:54:13;102385.78;;;3.96;100.00
59337;BME280;45115;52.002;4.686;2023-01-31T03:56:44;102386.09;;;3.87;100.00
59337;BME280;45115;52.002;4.686;2023-01-31T03:59:18;102392.72;;;3.67;100.00
59337;BME280;45115;52.002;4.686;2023-01-31T04:01:48;102383.13;;;3.59;100.00
59337;BME280;45115;52.002;4.686;2023-01-31T04:04:20;102395.78;;;3.41;100.00
59337;BME280;45115;52.002;4.686;2023-01-31T04:06:50;102395.78;;;3.26;100.00
59337;BME280;45115;52.002;4.686;2023-01-31T04:09:18;102396.59;;;3.26;100.00
59337;BME280;45115;52.002;4.686;2023-01-31T04:11:47;102402.03;;;3.55;100.00
59337;BME280;45115;52.002;4.686;2023-01-31T04:14:14;102393.78;;;3.73;100.00
59337;BME280;45115;52.002;4.686;2023-01-31T04:16:42;102380.84;;;3.87;100.00
59337;BME280;45115;52.002;4.686;2023-01-31T04:19:08;102385.78;;;3.96;100.00
59337;BME280;45115;52.002;4.686;2023-01-31T04:21:35;102368.94;;;4.06;100.00
59337;BME280;45115;52.002;4.686;2023-01-31T04:24:03;102370.06;;;4.18;100.00
59337;BME280;45115;52.002;4.686;2023-01-31T04:26:30;102364.28;;;4.23;100.00
59337;BME280;45115;52.002;4.686;2023-01-31T04:28:57;102362.41;;;4.38;100.00
59337;BME280;45115;52.002;4.686;2023-01-31T04:31:23;102358.78;;;4.39;100.00
59337;BME280;45115;52.002;4.686;2023-01-31T04:33:50;102358.53;;;4.34;100.00
59337;BME280;45115;52.002;4.686;2023-01-31T04:36:17;102354.34;;;4.40;100.00
59337;BME280;45115;52.002;4.686;2023-01-31T04:38:44;102362.00;;;4.42;100.00
59337;BME280;45115;52.002;4.686;2023-01-31T04:41:12;102355.22;;;4.47;100.00
59337;BME280;45115;52.002;4.686;2023-01-31T04:43:38;102347.44;;;4.39;100.00
59337;BME280;45115;52.002;4.686;2023-01-31T04:46:05;102347.06;;;4.42;100.00
59337;BME280;45115;52.002;4.686;2023-01-31T04:48:32;102339.63;;;4.46;100.00
59337;BME280;45115;52.002;4.686;2023-01-31T04:50:58;102336.44;;;4.50;100.00
59337;BME280;45115;52.002;4.686;2023-01-31T04:53:25;102340.28;;;4.55;100.00
59337;BME280;45115;52.002;4.686;2023-01-31T04:55:52;102340.72;;;4.58;100.00
59337;BME280;45115;52.002;4.686;2023-01-31T04:58:21;102346.19;;;4.57;100.00
59337;BME280;45115;52.002;4.686;2023-01-31T05:00:47;102348.59;;;4.58;100.00
59337;BME280;45115;52.002;4.686;2023-01-31T05:03:14;102349.06;;;4.62;100.00
59337;BME280;45115;52.002;4.686;2023-01-31T05:05:41;102345.00;;;4.59;100.00
59337;BME280;45115;52.002;4.686;2023-01-31T05:08:07;102336.69;;;4.56;100.00
59337;BME280;45115;52.002;4.686;2023-01-31T05:10:34;102336.91;;;4.61;100.00
59337;BME280;45115;52.002;4.686;2023-01-31T05:13:01;102328.84;;;4.62;100.00
59337;BME280;45115;52.002;4.686;2023-01-31T05:15:30;102326.44;;;4.68;100.00
59337;BME280;45115;52.002;4.686;2023-01-31T05:17:57;102328.06;;;4.69;100.00
59337;BME280;45115;52.002;4.686;2023-01-31T05:20:27;102312.94;;;4.71;100.00
59337;BME280;45115;52.002;4.686;2023-01-31T05:22:55;102321.63;;;4.71;100.00
59337;BME280;45115;52.002;4.686;2023-01-31T05:25:22;102319.00;;;4.71;100.00
59337;BME280;45115;52.002;4.686;2023-01-31T05:27:50;102328.56;;;4.79;100.00
59337;BME280;45115;52.002;4.686;2023-01-31T05:30:17;102327.75;;;4.78;100.00
59337;BME280;45115;52.002;4.686;2023-01-31T05:32:45;102328.59;;;4.86;100.00
59337;BME280;45115;52.002;4.686;2023-01-31T05:35:14;102329.03;;;4.89;100.00
59337;BME280;45115;52.002;4.686;2023-01-31T05:37:44;102332.47;;;4.90;100.00
59337;BME280;45115;52.002;4.686;2023-01-31T05:40:12;102327.47;;;4.95;100.00
59337;BME280;45115;52.002;4.686;2023-01-31T05:42:39;102318.97;;;4.93;100.00
59337;BME280;45115;52.002;4.686;2023-01-31T05:45:08;102315.75;;;4.98;100.00
59337;BME280;45115;52.002;4.686;2023-01-31T05:47:35;102320.19;;;4.97;100.00
59337;BME280;45115;52.002;4.686;2023-01-31T05:50:04;102322.84;;;5.04;100.00
59337;BME280;45115;52.002;4.686;2023-01-31T05:52:31;102317.84;;;5.09;100.00
59337;BME280;45115;52.002;4.686;2023-01-31T05:54:58;102324.53;;;5.12;100.00
59337;BME280;45115;52.002;4.686;2023-01-31T05:57:24;102319.91;;;5.14;100.00
59337;BME280;45115;52.002;4.686;2023-01-31T05:59:51;102328.41;;;5.16;100.00
59337;BME280;45115;52.002;4.686;2023-01-31T06:02:18;102330.44;;;5.21;100.00
59337;BME280;45115;52.002;4.686;2023-01-31T06:04:44;102326.81;;;5.22;100.00
59337;BME280;45115;52.002;4.686;2023-01-31T06:07:12;102308.78;;;5.18;100.00
59337;BME280;45115;52.002;4.686;2023-01-31T06:09:39;102302.91;;;5.16;100.00
59337;BME280;45115;52.002;4.686;2023-01-31T06:12:10;102298.84;;;5.14;100.00
59337;BME280;45115;52.002;4.686;2023-01-31T06:14:37;102299.84;;;5.13;100.00
59337;BME280;45115;52.002;4.686;2023-01-31T06:17:04;102306.75;;;5.14;100.00
59337;BME280;45115;52.002;4.686;2023-01-31T06:19:31;102304.13;;;5.21;100.00
59337;BME280;45115;52.002;4.686;2023-01-31T06:21:57;102307.41;;;5.23;100.00
59337;BME280;45115;52.002;4.686;2023-01-31T06:24:25;102303.31;;;5.20;100.00
59337;BME280;45115;52.002;4.686;2023-01-31T06:26:52;102311.84;;;5.22;100.00
59337;BME280;45115;52.002;4.686;2023-01-31T06:29:19;102308.19;;;5.23;100.00
59337;BME280;45115;52.002;4.686;2023-01-31T06:31:45;102302.91;;;5.23;100.00
59337;BME280;45115;52.002;4.686;2023-01-31T06:34:12;102304.34;;;5.26;100.00
59337;BME280;45115;52.002;4.686;2023-01-31T06:36:39;102298.28;;;5.25;100.00
59337;BME280;45115;52.002;4.686;2023-01-31T06:39:06;102305.78;;;5.28;100.00
59337;BME280;45115;52.002;4.686;2023-01-31T06:41:34;102285.19;;;5.32;100.00
59337;BME280;45115;52.002;4.686;2023-01-31T06:44:00;102283.34;;;5.32;100.00
59337;BME280;45115;52.002;4.686;2023-01-31T06:46:27;102276.03;;;5.35;100.00
59337;BME280;45115;52.002;4.686;2023-01-31T06:48:54;102277.69;;;5.36;100.00
59337;BME280;45115;52.002;4.686;2023-01-31T06:51:20;102276.69;;;5.37;100.00
59337;BME280;45115;52.002;4.686;2023-01-31T06:53:47;102260.88;;;5.37;100.00
59337;BME280;45115;52.002;4.686;2023-01-31T06:56:15;102262.72;;;5.43;100.00
59337;BME280;45115;52.002;4.686;2023-01-31T06:58:43;102258.91;;;5.45;100.00
59337;BME280;45115;52.002;4.686;2023-01-31T07:01:12;102261.94;;;5.49;100.00
59337;BME280;45115;52.002;4.686;2023-01-31T07:03:39;102261.53;;;5.45;100.00
59337;BME280;45115;52.002;4.686;2023-01-31T07:06:07;102251.59;;;5.48;100.00
59337;BME280;45115;52.002;4.686;2023-01-31T07:08:34;102250.63;;;5.49;100.00
59337;BME280;45115;52.002;4.686;2023-01-31T07:11:01;102253.03;;;5.50;100.00
59337;BME280;45115;52.002;4.686;2023-01-31T07:13:28;102228.94;;;5.47;100.00
59337;BME280;45115;52.002;4.686;2023-01-31T07:15:57;102230.34;;;5.49;100.00
59337;BME280;45115;52.002;4.686;2023-01-31T07:18:23;102229.13;;;5.45;100.00
59337;BME280;45115;52.002;4.686;2023-01-31T07:20:50;102234.97;;;5.40;100.00
59337;BME280;45115;52.002;4.686;2023-01-31T07:23:17;102233.75;;;5.36;100.00
59337;BME280;45115;52.002;4.686;2023-01-31T07:25:43;102243.88;;;5.32;100.00
59337;BME280;45115;52.002;4.686;2023-01-31T07:28:10;102237.38;;;5.28;100.00
59337;BME280;45115;52.002;4.686;2023-01-31T07:30:37;102238.41;;;5.34;100.00
59337;BME280;45115;52.002;4.686;2023-01-31T07:33:09;102231.53;;;5.33;100.00
59337;BME280;45115;52.002;4.686;2023-01-31T07:35:36;102231.31;;;5.35;100.00
59337;BME280;45115;52.002;4.686;2023-01-31T07:38:03;102227.69;;;5.36;100.00
59337;BME280;45115;52.002;4.686;2023-01-31T07:40:29;102227.31;;;5.45;100.00
59337;BME280;45115;52.002;4.686;2023-01-31T07:42:57;102221.06;;;5.53;100.00
59337;BME280;45115;52.002;4.686;2023-01-31T07:45:24;102220.88;;;5.62;100.00
59337;BME280;45115;52.002;4.686;2023-01-31T07:47:51;102216.44;;;5.69;100.00
59337;BME280;45115;52.002;4.686;2023-01-31T07:50:19;102205.91;;;5.76;100.00
59337;BME280;45115;52.002;4.686;2023-01-31T07:52:46;102200.66;;;5.82;100.00
59337;BME280;45115;52.002;4.686;2023-01-31T07:55:14;102199.84;;;5.89;100.00
59337;BME280;45115;52.002;4.686;2023-01-31T07:57:41;102188.69;;;5.87;100.00
59337;BME280;45115;52.002;4.686;2023-01-31T08:00:08;102191.13;;;5.88;100.00
59337;BME280;45115;52.002;4.686;2023-01-31T08:02:56;102179.56;;;5.96;100.00
59337;BME280;45115;52.002;4.686;2023-01-31T08:05:44;102172.69;;;5.95;100.00
59337;BME280;45115;52.002;4.686;2023-01-31T08:08:11;102180.59;;;5.88;100.00
59337;BME280;45115;52.002;4.686;2023-01-31T08:10:38;102191.75;;;5.83;100.00
59337;BME280;45115;52.002;4.686;2023-01-31T08:13:04;102196.38;;;5.88;100.00
59337;BME280;45115;52.002;4.686;2023-01-31T08:15:31;102176.94;;;5.89;100.00
59337;BME280;45115;52.002;4.686;2023-01-31T08:17:58;102187.50;;;6.03;100.00
59337;BME280;45115;52.002;4.686;2023-01-31T08:20:25;102175.97;;;6.04;100.00
59337;BME280;45115;52.002;4.686;2023-01-31T08:22:55;102172.31;;;6.05;100.00
59337;BME280;45115;52.002;4.686;2023-01-31T08:25:22;102184.44;;;5.92;100.00
59337;BME280;45115;52.002;4.686;2023-01-31T08:27:51;102186.84;;;5.80;100.00
59337;BME280;45115;52.002;4.686;2023-01-31T08:30:17;102167.59;;;5.66;100.00
59337;BME280;45115;52.002;4.686;2023-01-31T08:32:44;102175.50;;;5.59;100.00
59337;BME280;45115;52.002;4.686;2023-01-31T08:35:11;102176.91;;;5.55;100.00
59337;BME280;45115;52.002;4.686;2023-01-31T08:37:37;102169.41;;;5.52;100.00
59337;BME280;45115;52.002;4.686;2023-01-31T08:40:07;102163.13;;;5.53;100.00
59337;BME280;45115;52.002;4.686;2023-01-31T08:42:34;102159.31;;;5.63;100.00
59337;BME280;45115;52.002;4.686;2023-01-31T08:45:00;102164.16;;;5.66;100.00
59337;BME280;45115;52.002;4.686;2023-01-31T08:47:27;102165.38;;;5.70;100.00
59337;BME280;45115;52.002;4.686;2023-01-31T08:49:54;102165.81;;;5.87;100.00
59337;BME280;45115;52.002;4.686;2023-01-31T08:52:20;102164.41;;;6.05;100.00
59337;BME280;45115;52.002;4.686;2023-01-31T08:54:47;102170.06;;;6.22;100.00
59337;BME280;45115;52.002;4.686;2023-01-31T08:57:15;102179.56;;;6.36;100.00
59337;BME280;45115;52.002;4.686;2023-01-31T08:59:42;102172.66;;;6.49;100.00
59337;BME280;45115;52.002;4.686;2023-01-31T09:02:09;102178.34;;;6.46;100.00
59337;BME280;45115;52.002;4.686;2023-01-31T09:04:36;102176.50;;;6.40;100.00
59337;BME280;45115;52.002;4.686;2023-01-31T09:07:02;102175.53;;;6.34;100.00
59337;BME280;45115;52.002;4.686;2023-01-31T09:09:29;102174.50;;;6.42;100.00
59337;BME280;45115;52.002;4.686;2023-01-31T09:11:56;102175.09;;;6.37;100.00
59337;BME280;45115;52.002;4.686;2023-01-31T09:14:24;102174.91;;;6.38;100.00
59337;BME280;45115;52.002;4.686;2023-01-31T09:16:50;102179.97;;;6.40;100.00
59337;BME280;45115;52.002;4.686;2023-01-31T09:19:17;102168.59;;;6.46;100.00
59337;BME280;45115;52.002;4.686;2023-01-31T09:21:44;102156.81;;;6.56;100.00
59337;BME280;45115;52.002;4.686;2023-01-31T09:24:11;102157.81;;;6.61;100.00
59337;BME280;45115;52.002;4.686;2023-01-31T09:26:37;102153.53;;;6.60;100.00
59337;BME280;45115;52.002;4.686;2023-01-31T09:29:04;102142.78;;;6.69;100.00
59337;BME280;45115;52.002;4.686;2023-01-31T09:31:32;102136.13;;;7.05;100.00
59337;BME280;45115;52.002;4.686;2023-01-31T09:33:59;102140.41;;;7.38;100.00
59337;BME280;45115;52.002;4.686;2023-01-31T09:36:26;102132.91;;;7.35;100.00
59337;BME280;45115;52.002;4.686;2023-01-31T09:38:53;102128.22;;;7.37;100.00
59337;BME280;45115;52.002;4.686;2023-01-31T09:41:25;102129.09;;;7.31;100.00
59337;BME280;45115;52.002;4.686;2023-01-31T09:43:55;102122.06;;;7.18;100.00
59337;BME280;45115;52.002;4.686;2023-01-31T09:46:24;102132.28;;;7.01;100.00
59337;BME280;45115;52.002;4.686;2023-01-31T09:48:55;102136.00;;;6.86;100.00
59337;BME280;45115;52.002;4.686;2023-01-31T09:51:24;102133.53;;;6.91;100.00
59337;BME280;45115;52.002;4.686;2023-01-31T09:53:54;102132.69;;;6.98;100.00
59337;BME280;45115;52.002;4.686;2023-01-31T09:56:30;102142.19;;;7.12;100.00
59337;BME280;45115;52.002;4.686;2023-01-31T09:59:03;102140.91;;;7.22;100.00
59337;BME280;45115;52.002;4.686;2023-01-31T10:01:37;102138.50;;;7.13;100.00
59337;BME280;45115;52.002;4.686;2023-01-31T10:04:19;102141.22;;;7.00;100.00
59337;BME280;45115;52.002;4.686;2023-01-31T10:06:52;102139.56;;;7.05;100.00
59337;BME280;45115;52.002;4.686;2023-01-31T10:09:27;102131.03;;;7.10;100.00
59337;BME280;45115;52.002;4.686;2023-01-31T10:11:58;102138.06;;;7.23;100.00
59337;BME280;45115;52.002;4.686;2023-01-31T10:14:32;102139.38;;;7.39;100.00
59337;BME280;45115;52.002;4.686;2023-01-31T10:17:05;102147.22;;;7.53;100.00
59337;BME280;45115;52.002;4.686;2023-01-31T10:19:41;102143.22;;;7.69;100.00
59337;BME280;45115;52.002;4.686;2023-01-31T10:22:12;102132.19;;;7.53;100.00
59337;BME280;45115;52.002;4.686;2023-01-31T10:24:46;102150.22;;;7.56;100.00
59337;BME280;45115;52.002;4.686;2023-01-31T10:27:19;102141.22;;;7.39;100.00
59337;BME280;45115;52.002;4.686;2023-01-31T10:29:49;102143.59;;;7.47;100.00
59337;BME280;45115;52.002;4.686;2023-01-31T10:32:20;102128.81;;;7.39;100.00
59337;BME280;45115;52.002;4.686;2023-01-31T10:34:56;102143.66;;;7.40;100.00
59337;BME280;45115;52.002;4.686;2023-01-31T10:37:32;102141.00;;;7.40;100.00
59337;BME280;45115;52.002;4.686;2023-01-31T10:40:03;102136.91;;;7.44;100.00
59337;BME280;45115;52.002;4.686;2023-01-31T10:42:35;102128.97;;;7.44;100.00
59337;BME280;45115;52.002;4.686;2023-01-31T10:45:10;102125.88;;;7.54;100.00
59337;BME280;45115;52.002;4.686;2023-01-31T10:47:48;102132.72;;;7.62;100.00
59337;BME280;45115;52.002;4.686;2023-01-31T10:50:19;102124.16;;;7.67;100.00
59337;BME280;45115;52.002;4.686;2023-01-31T10:52:57;102129.38;;;7.74;100.00
59337;BME280;45115;52.002;4.686;2023-01-31T10:55:40;102114.00;;;7.64;100.00
59337;BME280;45115;52.002;4.686;2023-01-31T10:58:13;102128.22;;;7.63;100.00
59337;BME280;45115;52.002;4.686;2023-01-31T11:00:41;102123.59;;;7.58;100.00
59337;BME280;45115;52.002;4.686;2023-01-31T11:03:10;102129.38;;;7.48;100.00
59337;BME280;45115;52.002;4.686;2023-01-31T11:05:44;102139.97;;;7.41;100.00
59337;BME280;45115;52.002;4.686;2023-01-31T11:08:21;102134.03;;;7.46;100.00
59337;BME280;45115;52.002;4.686;2023-01-31T11:10:52;102132.41;;;7.52;100.00
59337;BME280;45115;52.002;4.686;2023-01-31T11:13:19;102130.72;;;7.57;100.00
59337;BME280;45115;52.002;4.686;2023-01-31T11:15:47;102142.25;;;7.63;100.00
59337;BME280;45115;52.002;4.686;2023-01-31T11:18:25;102139.16;;;7.66;100.00
59337;BME280;45115;52.002;4.686;2023-01-31T11:20:54;102141.59;;;7.68;100.00
59337;BME280;45115;52.002;4.686;2023-01-31T11:23:22;102129.44;;;7.67;100.00
59337;BME280;45115;52.002;4.686;2023-01-31T11:25:51;102136.38;;;7.61;100.00
59337;BME280;45115;52.002;4.686;2023-01-31T11:28:22;102128.44;;;7.61;100.00
59337;BME280;45115;52.002;4.686;2023-01-31T11:30:53;102122.00;;;7.57;100.00
59337;BME280;45115;52.002;4.686;2023-01-31T11:33:40;102133.16;;;7.59;100.00
59337;BME280;45115;52.002;4.686;2023-01-31T11:36:13;102127.06;;;7.58;100.00
59337;BME280;45115;52.002;4.686;2023-01-31T11:38:40;102123.03;;;7.56;100.00
59337;BME280;45115;52.002;4.686;2023-01-31T11:41:25;102117.88;;;7.61;100.00
59337;BME280;45115;52.002;4.686;2023-01-31T11:44:15;102121.72;;;7.65;100.00
59337;BME280;45115;52.002;4.686;2023-01-31T11:46:47;102125.97;;;7.66;100.00
59337;BME280;45115;52.002;4.686;2023-01-31T11:49:20;102128.44;;;7.61;100.00
59337;BME280;45115;52.002;4.686;2023-01-31T11:51:50;102117.94;;;7.54;100.00
59337;BME280;45115;52.002;4.686;2023-01-31T11:54:20;102127.69;;;7.54;100.00
59337;BME280;45115;52.002;4.686;2023-01-31T11:56:47;102119.16;;;7.58;100.00
59337;BME280;45115;52.002;4.686;2023-01-31T11:59:17;102116.06;;;7.62;100.00
59337;BME280;45115;52.002;4.686;2023-01-31T12:01:47;102092.94;;;7.57;100.00
59337;BME280;45115;52.002;4.686;2023-01-31T12:04:17;102082.75;;;7.61;100.00
59337;BME280;45115;52.002;4.686;2023-01-31T12:07:07;102082.13;;;7.84;100.00
59337;BME280;45115;52.002;4.686;2023-01-31T12:09:46;102092.25;;;7.87;100.00
59337;BME280;45115;52.002;4.686;2023-01-31T12:12:26;102100.78;;;7.89;100.00
59337;BME280;45115;52.002;4.686;2023-01-31T12:14:59;102100.59;;;7.91;100.00
59337;BME280;45115;52.002;4.686;2023-01-31T12:17:28;102080.44;;;7.90;100.00
59337;BME280;45115;52.002;4.686;2023-01-31T12:20:07;102095.50;;;7.89;100.00
59337;BME280;45115;52.002;4.686;2023-01-31T12:22:44;102077.59;;;7.91;100.00
59337;BME280;45115;52.002;4.686;2023-01-31T12:25:22;102086.13;;;7.93;100.00
59337;BME280;45115;52.002;4.686;2023-01-31T12:28:02;102070.63;;;7.97;100.00
59337;BME280;45115;52.002;4.686;2023-01-31T12:30:50;102062.47;;;8.17;100.00
59337;BME280;45115;52.002;4.686;2023-01-31T12:33:34;102075.56;;;8.31;100.00
59337;BME280;45115;52.002;4.686;2023-01-31T12:36:14;102078.22;;;8.31;100.00
59337;BME280;45115;52.002;4.686;2023-01-31T12:38:55;102070.28;;;8.31;100.00
59337;BME280;45115;52.002;4.686;2023-01-31T12:41:30;102059.09;;;8.29;100.00
59337;BME280;45115;52.002;4.686;2023-01-31T12:44:26;102050.94;;;8.30;100.00
59337;BME280;45115;52.002;4.686;2023-01-31T12:47:07;102030.41;;;8.14;100.00
59337;BME280;45115;52.002;4.686;2023-01-31T12:49:55;102055.47;;;8.42;100.00
59337;BME280;45115;52.002;4.686;2023-01-31T12:52:28;102044.34;;;8.40;100.00
59337;BME280;45115;52.002;4.686;2023-01-31T12:55:08;102054.91;;;8.58;100.00
59337;BME280;45115;52.002;4.686;2023-01-31T12:57:41;102061.06;;;8.71;100.00
59337;BME280;45115;52.002;4.686;2023-01-31T13:00:21;102056.81;;;8.70;100.00
59337;BME280;45115;52.002;4.686;2023-01-31T13:03:02;102058.63;;;8.69;100.00
59337;BME280;45115;52.002;4.686;2023-01-31T13:05:37;102053.56;;;8.68;100.00
59337;BME280;45115;52.002;4.686;2023-01-31T13:08:13;102044.72;;;8.74;100.00